Address 0x82c55f206e3c919e2e35f9a34ae3559d3ec608d2 3

 

Overview

Balance:
0.283234075923530094 BNB

BNB Value:
$104.80 (@ $370.01/BNB)

Token:
Txn Hash Method
Block
From
To
Value [Txn Fee]
0xd23e982e1161a51bfcce51041b55c89d3c94698cf6e26bf22a1b81834b1863c4Swap Exact Token...110816042021-09-20 14:40:5017 hrs 48 mins ago0x82c55f206e3c919e2e35f9a34ae3559d3ec608d2OUT PancakeSwap: Router v20 BNB0.000997665
0x8cd3cec848f048c5b10170c39dea5a0dc33376c86ce315c056b1fe4baaa185c5Approve110815612021-09-20 14:38:4117 hrs 50 mins ago0x82c55f206e3c919e2e35f9a34ae3559d3ec608d2OUT USD Coin: USDC Token0 BNB0.00023576
0x54bcb2ac67d432266b7fa5e0bd5b2f68d831110e5df877736d75bf2a004022e4Approve110811932021-09-20 14:20:1718 hrs 8 mins ago0x82c55f206e3c919e2e35f9a34ae3559d3ec608d2OUT USD Coin: USDC Token0 BNB0.0002342
0x52d83c6ea48c8857dcf39589a505bd825808954a9a35b91741d12ebb448a732dSwap Tokens For ...110811792021-09-20 14:19:3518 hrs 9 mins ago0x82c55f206e3c919e2e35f9a34ae3559d3ec608d2OUT PancakeSwap: Router v20 BNB0.001103925
0x094bd1adfd53ef8158d50389814eb248c3c5bce4342f46e92dd5bd92937b81efInvest ETH110496572021-09-19 12:00:571 day 20 hrs ago0x82c55f206e3c919e2e35f9a34ae3559d3ec608d2OUT 0x73b0c74dc9625b4b19b18101e59321c0832954951.0941 BNB0.001067165
0x12e6eee618c3c5b95579c3f553b1eb84a8cfd32d6f02926f970fa67d14b98522Swap Tokens For ...110495812021-09-19 11:57:081 day 20 hrs ago0x82c55f206e3c919e2e35f9a34ae3559d3ec608d2OUT PancakeSwap: Router v20 BNB0.000733675
0xd2fcd2d9251b7d02cb952e5babcfec8c4838228e8e45c22a9ed2c945ad5bac8bSwap Tokens For ...110495572021-09-19 11:55:561 day 20 hrs ago0x82c55f206e3c919e2e35f9a34ae3559d3ec608d2OUT PancakeSwap: Router v20 BNB0.000157735
0x09e2483814754f056367db91d55b1e2ad756a9ca785d9784eea4260b3fccc158Approve110495382021-09-19 11:54:591 day 20 hrs ago0x82c55f206e3c919e2e35f9a34ae3559d3ec608d2OUT 0x1bf7aedec439d6bfe38f8f9b20cf3dc99e3571c40 BNB0.0002359
0xaa936e876969e80fd519d099eb73c2aa8885b3d48bff0c5b67b5652034f5b605Swap110479582021-09-19 10:28:101 day 22 hrs ago0x82c55f206e3c919e2e35f9a34ae3559d3ec608d2OUT 0xf7caa2f8412ad9329467435de9491833077243700.015 BNB0.000578895
0xf1921a1728be534e75ef88bbac6842dd5ef5ef10d92693162b07b44cd9a1252fApprove110479422021-09-19 10:27:151 day 22 hrs ago0x82c55f206e3c919e2e35f9a34ae3559d3ec608d2OUT 0x1bf7aedec439d6bfe38f8f9b20cf3dc99e3571c40 BNB0.0002344
0x6c0058038fd032b01909708b7413871948a48fad956ba44b072e2dbc7a5f8290Swap Exact Token...110267832021-09-18 16:41:432 days 15 hrs ago0x82c55f206e3c919e2e35f9a34ae3559d3ec608d2OUT PancakeSwap: Router v20 BNB0.00084936
0x53a3508945a26f981b75775d486f86147d7325868c25a613d4cbd1da60ac0b4dSwap Exact Token...110267632021-09-18 16:40:432 days 15 hrs ago0x82c55f206e3c919e2e35f9a34ae3559d3ec608d2OUT PancakeSwap: Router v20 BNB0.00098472
0x7227d2cf4ae0a03eeed445a8530cda6f83aa355afd343fa52d0f08ed086c2773Swap Exact Token...110267042021-09-18 16:37:462 days 15 hrs ago0x82c55f206e3c919e2e35f9a34ae3559d3ec608d2OUT PancakeSwap: Router v20 BNB0.00019521
0xa09faa4efa499e808cd3ee02899f4637c6638cbd8e20110f3f3ad600f2009bc6Swap Exact Token...110266262021-09-18 16:33:522 days 15 hrs ago0x82c55f206e3c919e2e35f9a34ae3559d3ec608d2OUT PancakeSwap: Router v20 BNB0.00019521
0x0e118973cf26e607931a75310eb2c51f9a3baf3ce16eb48003d25cbe1bae5dceTransfer Request110154972021-09-18 7:15:163 days 1 hr ago0x82c55f206e3c919e2e35f9a34ae3559d3ec608d2OUT 0x3ff370038318d1b53120e33a92b600b386bf52950 BNB0.0003356
0xd1b3b0f130d999c5b578419341229aa0bf141bdb893c6f7cb0e53764dec20319Approve110154852021-09-18 7:14:403 days 1 hr ago0x82c55f206e3c919e2e35f9a34ae3559d3ec608d2OUT DuckDAO: DUCK Token0 BNB0.00022128
0x3024c6617d6ab8d5bccc70b845851ebfdb2fce87dff6156d2a4df6b59fa70f93Transfer Receipt110146652021-09-18 6:33:403 days 1 hr ago0x82c55f206e3c919e2e35f9a34ae3559d3ec608d2OUT 0x3ff370038318d1b53120e33a92b600b386bf52950 BNB0.000511435
0x066e8564852fffd45328857818922f72561a47e44ca0c4de31e8678a6ad24ca3Redeem Tokens109966852021-09-17 15:32:573 days 16 hrs ago0x82c55f206e3c919e2e35f9a34ae3559d3ec608d2OUT 0x7f081bc26386f596a60133bd7511d8c4aa851eeb0 BNB0.00034449
0xa03dd5ad571cc3ab6e6834d4418eb1a0d8871ed06f54f2d555a5143f43c7f9e3Swap Exact Token...109948152021-09-17 13:59:253 days 18 hrs ago0x82c55f206e3c919e2e35f9a34ae3559d3ec608d2OUT PancakeSwap: Router v20 BNB0.00084942
0xd6e124f6d369b2e0e0d88be12243c5cdf50010628f8fa165edb965ed0b8aa0a4Swap Exact Token...109947762021-09-17 13:57:283 days 18 hrs ago0x82c55f206e3c919e2e35f9a34ae3559d3ec608d2OUT PancakeSwap: Router v20 BNB0.00019521
0xa18034d2cc32420a0e42737a2dbe37f47f07e42c1e9ba3e0a0c4747c5816727dSwap Exact Token...109947222021-09-17 13:54:463 days 18 hrs ago0x82c55f206e3c919e2e35f9a34ae3559d3ec608d2OUT PancakeSwap: Router v20 BNB0.00092436
0xc5e12dd45a2e21eabadbb90570e939451d17d73a265aabc54e3cde0544daca6aSwap Exact Token...109946882021-09-17 13:53:043 days 18 hrs ago0x82c55f206e3c919e2e35f9a34ae3559d3ec608d2OUT PancakeSwap: Router v20 BNB0.00019521
0x9970a00a2ec5ce408f7e6184490c3730c64b7c114c0edd02194d8b42f6f73125Swap Exact Token...109946152021-09-17 13:49:253 days 18 hrs ago0x82c55f206e3c919e2e35f9a34ae3559d3ec608d2OUT PancakeSwap: Router v20 BNB0.00019521
0x9c14b7a8073542612328aa1ab6dc33b6b7d0d7beecf003c0437b19f78e2ad7e6Swap Exact ETH F...109935082021-09-17 12:53:593 days 19 hrs ago0x82c55f206e3c919e2e35f9a34ae3559d3ec608d2OUT PancakeSwap: Router v22.21 BNB0.00062953
0x24427a382429a54696987dcb4ffa90d484fbcae19a28248044facbc90785cc8aTransfer109933722021-09-17 12:47:113 days 19 hrs agoBinance: Hot Wallet 11 IN 0x82c55f206e3c919e2e35f9a34ae3559d3ec608d22.21117412 BNB0.00021
[ Download CSV Export 
Latest 6 internal transactions
Parent Txn Hash Block From To Value
0x12e6eee618c3c5b95579c3f553b1eb84a8cfd32d6f02926f970fa67d14b98522110495812021-09-19 11:57:081 day 20 hrs ago PancakeSwap: Router v20x82c55f206e3c919e2e35f9a34ae3559d3ec608d21 BNB
0xb0b33f7713cb8da802ccb87424e10c237afee0da08c9e4714f1d779a9025be34109141192021-09-14 18:33:476 days 13 hrs ago PancakeSwap: Router v20x82c55f206e3c919e2e35f9a34ae3559d3ec608d20.002999316645772588 BNB
0x2ed4fcaf78b969cdda259afe27a316dbdd905511a5b8813478c483160bce127f108720832021-09-13 7:26:008 days 1 hr ago PancakeSwap: Router v20x82c55f206e3c919e2e35f9a34ae3559d3ec608d20.000222924105464056 BNB
0xd272d9aed34d3342fa05859ae736298e8e6b13c40c4bbd91f28d13b985fd9360108720482021-09-13 7:24:158 days 1 hr ago PancakeSwap: Router v20x82c55f206e3c919e2e35f9a34ae3559d3ec608d20.000668537602197798 BNB
0x49a304234e077997b16122bfc194c270431b14de002f194407413484b140ae6089475212021-07-07 12:17:4975 days 20 hrs ago PancakeSwap: Router v20x82c55f206e3c919e2e35f9a34ae3559d3ec608d26.179007523441172538 BNB
0x2fa08572f8a154795fd921596301191779797a9e176e8d2331fe65828a93659b89133142021-07-06 7:42:4877 days 46 mins ago PancakeSwap: Router v20x82c55f206e3c919e2e35f9a34ae3559d3ec608d28.064692779498225685 BNB
[ Download CSV Export 
Loading

Contract Name:
0 BNB

Compiler Version
0

Optimization Enabled:
0 BNB

Other Settings:
-NA-
Block Transaction Gas Used Reward
Age Block Fee Address BC Fee Address Voting Power Jailed Incoming
Block Uncle Number Difficulty Gas Used Reward
Loading
Loading
Make sure to use the "Vote Down" button for any spammy posts, and the "Vote Up" for interesting conversations.